createdAt,value
2024-05-09T00:00:35.562Z,12.10
2024-05-09T00:03:07.412Z,14.60
2024-05-09T00:05:34.628Z,11.23
2024-05-09T00:08:01.580Z,11.57
2024-05-09T00:10:35.438Z,11.63
2024-05-09T00:13:05.097Z,11.60
2024-05-09T00:15:33.325Z,12.82
2024-05-09T00:18:00.265Z,11.98
2024-05-09T00:20:35.280Z,12.45
2024-05-09T00:23:07.032Z,12.70
2024-05-09T00:25:34.012Z,13.13
2024-05-09T00:28:00.830Z,11.32
2024-05-09T00:30:33.682Z,11.75
2024-05-09T00:33:03.203Z,13.18
2024-05-09T00:35:30.376Z,12.45
2024-05-09T00:37:57.143Z,12.88
2024-05-09T00:40:34.770Z,11.40
2024-05-09T00:43:06.180Z,11.80
2024-05-09T00:45:33.752Z,13.10
2024-05-09T00:48:01.858Z,12.57
2024-05-09T00:50:35.708Z,14.73
2024-05-09T00:53:05.222Z,13.93
2024-05-09T00:55:31.971Z,14.05
2024-05-09T00:57:58.565Z,12.00
2024-05-09T01:00:31.702Z,13.00
2024-05-09T01:03:05.345Z,12.15
2024-05-09T01:05:32.514Z,11.98
2024-05-09T01:07:59.260Z,13.35
2024-05-09T01:10:33.517Z,12.30
2024-05-09T01:13:02.795Z,15.10
2024-05-09T01:15:29.396Z,13.43
2024-05-09T01:17:56.861Z,13.07
2024-05-09T01:20:32.244Z,14.25
2024-05-09T01:23:07.492Z,13.88
2024-05-09T01:25:35.330Z,14.65
2024-05-09T01:28:01.951Z,14.18
2024-05-09T01:30:34.398Z,14.88
2024-05-09T01:33:04.016Z,12.63
2024-05-09T01:35:31.062Z,13.93
2024-05-09T01:37:57.717Z,13.23
2024-05-09T01:40:33.499Z,15.27
2024-05-09T01:43:04.726Z,14.68
2024-05-09T01:45:31.467Z,14.30
2024-05-09T01:47:58.505Z,14.48
2024-05-09T01:50:34.107Z,14.63
2024-05-09T01:53:05.499Z,14.70
2024-05-09T01:55:32.170Z,15.02
2024-05-09T01:57:58.805Z,13.95
2024-05-09T02:00:36.853Z,15.93
2024-05-09T02:03:15.607Z,15.50
2024-05-09T02:05:45.419Z,16.95
2024-05-09T02:08:20.457Z,14.98
2024-05-09T02:10:48.535Z,16.27
2024-05-09T02:13:15.882Z,16.23
2024-05-09T02:15:42.858Z,13.02
2024-05-09T02:18:10.272Z,15.35
2024-05-09T02:20:41.722Z,15.32
2024-05-09T02:23:09.278Z,14.38
2024-05-09T02:25:36.043Z,16.15
2024-05-09T02:28:02.844Z,16.35
2024-05-09T02:30:38.628Z,15.57
2024-05-09T02:33:09.252Z,13.80
2024-05-09T02:35:36.999Z,16.13
2024-05-09T02:38:03.802Z,15.18
2024-05-09T02:40:36.743Z,14.57
2024-05-09T02:43:06.456Z,14.60
2024-05-09T02:45:33.513Z,15.80
2024-05-09T02:48:00.735Z,15.82
2024-05-09T02:50:34.523Z,16.27
2024-05-09T02:53:05.942Z,15.70
2024-05-09T02:55:32.900Z,16.63
2024-05-09T02:57:59.728Z,15.68
2024-05-09T03:00:34.704Z,17.38
2024-05-09T03:03:08.310Z,16.13
2024-05-09T03:05:36.211Z,14.38
2024-05-09T03:08:03.025Z,15.75
2024-05-09T03:10:35.550Z,15.45
2024-05-09T03:13:07.846Z,19.10
2024-05-09T03:15:34.579Z,16.65
2024-05-09T03:18:01.585Z,17.35
2024-05-09T03:20:33.859Z,16.17
2024-05-09T03:23:02.500Z,14.98
2024-05-09T03:25:29.267Z,16.10
2024-05-09T03:27:55.817Z,17.02
2024-05-09T03:30:35.794Z,16.92
2024-05-09T03:33:14.120Z,15.45
2024-05-09T03:35:41.778Z,16.10
2024-05-09T03:38:08.631Z,17.55
2024-05-09T03:40:35.512Z,18.05
2024-05-09T03:43:02.104Z,17.08
2024-05-09T03:45:28.688Z,19.00
2024-05-09T03:47:55.593Z,17.80
2024-05-09T03:50:29.728Z,19.13
2024-05-09T03:53:01.062Z,17.88
2024-05-09T03:55:28.049Z,16.10
2024-05-09T03:57:54.627Z,20.27
2024-05-09T04:00:30.558Z,15.90
2024-05-09T04:05:31.143Z,18.35
2024-05-09T04:07:58.015Z,16.98
2024-05-09T04:10:31.340Z,16.65
2024-05-09T04:13:00.657Z,18.20
2024-05-09T04:15:27.271Z,18.05
2024-05-09T04:17:54.129Z,17.67
2024-05-09T04:20:32.828Z,18.92
2024-05-09T04:23:05.835Z,17.30
2024-05-09T04:25:32.708Z,17.35
2024-05-09T04:27:59.436Z,17.95
2024-05-09T04:30:34.850Z,18.67
2024-05-09T04:33:06.672Z,16.75
2024-05-09T04:35:34.416Z,17.50
2024-05-09T04:38:01.302Z,17.88
2024-05-09T04:40:33.407Z,19.35
2024-05-09T04:43:03.517Z,17.70
2024-05-09T04:45:30.365Z,18.02
2024-05-09T04:47:57.243Z,19.00
2024-05-09T04:50:33.454Z,20.88
2024-05-09T04:53:05.067Z,24.67
2024-05-09T04:55:32.610Z,26.92
2024-05-09T04:57:59.269Z,21.30
2024-05-09T05:00:32.609Z,21.65
2024-05-09T05:03:15.229Z,20.00
2024-05-09T05:05:44.968Z,19.80
2024-05-09T05:08:17.428Z,21.02
2024-05-09T05:10:45.271Z,16.38
2024-05-09T05:13:24.788Z,18.83
2024-05-09T05:15:57.481Z,17.88
2024-05-09T05:18:26.530Z,18.25
2024-05-09T05:20:54.788Z,19.58
2024-05-09T05:23:22.459Z,18.08
2024-05-09T05:25:50.557Z,18.42
2024-05-09T05:28:17.647Z,20.35
2024-05-09T05:30:44.776Z,18.23
2024-05-09T05:33:15.580Z,19.63
2024-05-09T05:35:42.669Z,20.35
2024-05-09T05:38:10.396Z,19.17
2024-05-09T05:40:38.689Z,20.83
2024-05-09T05:43:08.610Z,20.77
2024-05-09T05:45:35.464Z,21.05
2024-05-09T05:48:04.037Z,18.13
2024-05-09T05:50:35.874Z,22.10
2024-05-09T05:53:06.187Z,22.80
2024-05-09T05:55:32.978Z,20.00
2024-05-09T05:58:00.630Z,22.15
2024-05-09T06:00:34.414Z,23.67
2024-05-09T06:03:05.268Z,23.80
2024-05-09T06:05:32.657Z,23.98
2024-05-09T06:07:59.595Z,21.20
2024-05-09T06:10:34.691Z,23.23
2024-05-09T06:13:05.262Z,26.20
2024-05-09T06:15:31.874Z,24.77
2024-05-09T06:17:58.786Z,22.05
2024-05-09T06:20:34.605Z,20.95
2024-05-09T06:23:06.188Z,23.30
2024-05-09T06:25:33.352Z,23.05
2024-05-09T06:28:00.909Z,25.13
2024-05-09T06:30:36.644Z,25.30
2024-05-09T06:33:07.207Z,21.30
2024-05-09T06:35:34.302Z,22.73
2024-05-09T06:38:01.552Z,20.92
2024-05-09T06:40:36.706Z,20.17
2024-05-09T06:43:10.554Z,21.95
2024-05-09T06:45:37.297Z,19.02
2024-05-09T06:48:04.403Z,29.95
2024-05-09T06:50:37.009Z,23.65
2024-05-09T06:53:05.145Z,22.80
2024-05-09T06:55:31.807Z,21.05
2024-05-09T06:57:58.411Z,17.50
2024-05-09T07:00:30.959Z,18.55
2024-05-09T07:03:14.411Z,18.23
2024-05-09T07:05:43.604Z,17.75
2024-05-09T07:08:10.689Z,16.83
2024-05-09T07:10:37.837Z,16.40
2024-05-09T07:13:11.758Z,15.02
2024-05-09T07:15:39.006Z,16.38
2024-05-09T07:18:20.262Z,16.55
2024-05-09T07:20:48.993Z,14.27
2024-05-09T07:23:16.748Z,15.40
2024-05-09T07:25:43.539Z,15.63
2024-05-09T07:28:12.164Z,13.90
2024-05-09T07:30:38.728Z,12.95
2024-05-09T07:33:05.747Z,14.57
2024-05-09T07:35:32.651Z,16.10
2024-05-09T07:37:59.462Z,15.32
2024-05-09T07:40:33.150Z,17.88
2024-05-09T07:43:13.101Z,14.23
2024-05-09T07:45:49.396Z,12.82
2024-05-09T07:53:38.559Z,12.02
2024-05-09T07:56:07.359Z,13.85
2024-05-09T07:58:34.426Z,12.88
2024-05-09T08:01:02.640Z,13.10
2024-05-09T08:03:29.482Z,12.60
2024-05-09T08:05:56.283Z,15.20
2024-05-09T08:08:23.011Z,14.10
2024-05-09T08:10:50.559Z,13.45
2024-05-09T08:13:17.279Z,11.35
2024-05-09T08:15:43.966Z,13.23
2024-05-09T08:18:11.347Z,12.48
2024-05-09T08:20:38.416Z,12.82
2024-05-09T08:23:05.107Z,11.48
2024-05-09T08:25:31.688Z,10.70
2024-05-09T08:27:58.324Z,12.18
2024-05-09T08:30:32.565Z,10.23
2024-05-09T08:33:04.184Z,12.23
2024-05-09T08:35:30.918Z,11.25
2024-05-09T08:37:57.631Z,11.93
2024-05-09T08:40:31.065Z,11.52
2024-05-09T08:43:02.862Z,11.82
2024-05-09T08:45:30.217Z,13.00
2024-05-09T08:47:59.594Z,11.75
2024-05-09T08:50:32.467Z,11.57
2024-05-09T08:53:05.414Z,11.07
2024-05-09T08:55:32.112Z,11.82
2024-05-09T08:57:59.276Z,9.75
2024-05-09T09:00:35.661Z,11.35
2024-05-09T09:03:06.067Z,11.82
2024-05-09T09:05:34.821Z,11.50
2024-05-09T09:08:04.643Z,12.02
2024-05-09T09:10:32.714Z,10.30
2024-05-09T09:13:09.618Z,12.85
2024-05-09T09:15:46.900Z,10.55
2024-05-09T09:18:14.045Z,11.25
2024-05-09T09:20:40.789Z,12.70
2024-05-09T09:23:07.835Z,12.07
2024-05-09T09:25:34.458Z,10.77
2024-05-09T09:28:01.196Z,10.30
2024-05-09T09:30:35.366Z,11.50
2024-05-09T09:33:08.499Z,11.15
2024-05-09T09:35:38.533Z,10.50
2024-05-09T09:38:06.975Z,10.52
2024-05-09T09:40:37.651Z,9.65
2024-05-09T09:43:14.195Z,11.95
2024-05-09T09:45:41.984Z,11.55
2024-05-09T09:48:10.491Z,11.60
2024-05-09T09:50:37.718Z,11.57
2024-05-09T09:53:05.035Z,10.98
2024-05-09T09:55:32.628Z,10.82
2024-05-09T09:57:59.771Z,10.65
2024-05-09T10:00:32.633Z,11.18
2024-05-09T10:03:00.866Z,12.15
2024-05-09T10:05:28.448Z,10.95
2024-05-09T10:07:56.000Z,11.10
2024-05-09T10:10:30.408Z,11.38
2024-05-09T10:13:06.811Z,12.20
2024-05-09T10:15:50.422Z,12.98
2024-05-09T10:18:17.316Z,12.57
2024-05-09T10:20:44.841Z,12.65
2024-05-09T10:23:30.635Z,13.50
2024-05-09T10:25:58.557Z,12.95
2024-05-09T10:28:26.945Z,12.13
2024-05-09T10:31:19.736Z,11.65
2024-05-09T10:33:52.052Z,12.50
2024-05-09T10:36:24.118Z,11.23
2024-05-09T10:38:51.678Z,11.77
2024-05-09T10:41:19.648Z,11.25
2024-05-09T10:43:47.287Z,12.07
2024-05-09T10:46:19.039Z,13.07
2024-05-09T10:48:47.449Z,14.23
2024-05-09T10:51:14.197Z,13.50
2024-05-09T10:53:44.643Z,13.10
2024-05-09T10:56:11.636Z,14.02
2024-05-09T10:58:38.222Z,12.35
2024-05-09T11:01:07.080Z,13.38
2024-05-09T11:06:01.285Z,12.60
2024-05-09T11:08:27.953Z,12.88
2024-05-09T11:10:54.964Z,12.38
2024-05-09T11:13:32.602Z,11.50
2024-05-09T11:16:00.001Z,12.10
2024-05-09T11:18:30.650Z,10.52
2024-05-09T11:21:00.342Z,13.40
2024-05-09T11:23:30.030Z,13.38
2024-05-09T11:25:58.148Z,12.63
2024-05-09T11:28:26.894Z,11.45
2024-05-09T11:31:05.372Z,14.30
2024-05-09T11:33:32.180Z,11.63
2024-05-09T11:35:58.887Z,13.65
2024-05-09T11:38:25.455Z,13.85
2024-05-09T11:40:52.091Z,12.90
2024-05-09T11:43:18.704Z,13.48
2024-05-09T11:45:45.318Z,12.00
2024-05-09T11:48:12.029Z,12.43
2024-05-09T11:50:39.018Z,14.40
2024-05-09T11:53:06.594Z,14.43
2024-05-09T11:55:36.402Z,13.32
2024-05-09T11:58:03.558Z,12.68
2024-05-09T12:00:36.594Z,13.25
2024-05-09T12:03:05.376Z,13.82
2024-05-09T12:05:33.095Z,14.82
2024-05-09T12:08:00.539Z,14.13
2024-05-09T12:10:33.101Z,15.25
2024-05-09T12:13:02.880Z,12.98
2024-05-09T12:15:30.182Z,14.10
2024-05-09T12:17:59.000Z,14.10
2024-05-09T12:20:35.423Z,14.15
2024-05-09T12:23:05.305Z,12.68
2024-05-09T12:25:32.004Z,12.18
2024-05-09T12:27:58.735Z,12.63
2024-05-09T12:30:34.445Z,12.25
2024-05-09T12:33:05.003Z,13.40
2024-05-09T12:35:31.897Z,12.73
2024-05-09T12:37:58.528Z,12.48
2024-05-09T12:40:34.280Z,11.70
2024-05-09T12:43:04.378Z,13.63
2024-05-09T12:45:31.427Z,11.32
2024-05-09T12:47:58.354Z,11.90
2024-05-09T12:50:31.678Z,10.80
2024-05-09T12:53:00.451Z,12.63
2024-05-09T12:55:28.368Z,13.48
2024-05-09T12:57:56.493Z,12.40
2024-05-09T13:00:28.242Z,11.90
2024-05-09T13:03:00.632Z,12.82
2024-05-09T13:05:27.908Z,12.55
2024-05-09T13:07:56.329Z,13.70
2024-05-09T13:10:29.434Z,12.60
2024-05-09T13:12:59.589Z,13.18
2024-05-09T13:15:26.524Z,13.02
2024-05-09T13:17:53.288Z,13.13
2024-05-09T13:20:28.976Z,13.63
2024-05-09T13:23:01.718Z,12.57
2024-05-09T13:25:28.359Z,14.52
2024-05-09T13:27:55.205Z,12.75
2024-05-09T13:30:29.418Z,12.52
2024-05-09T13:33:05.157Z,12.60
2024-05-09T13:35:32.308Z,14.18
2024-05-09T13:38:01.103Z,12.65
2024-05-09T13:40:33.575Z,14.68
2024-05-09T13:43:02.820Z,13.20
2024-05-09T13:45:29.602Z,12.85
2024-05-09T13:47:56.633Z,12.05
2024-05-09T13:50:31.370Z,14.65
2024-05-09T13:53:02.026Z,14.05
2024-05-09T13:55:28.773Z,13.68
2024-05-09T13:57:55.807Z,13.23
2024-05-09T14:00:32.301Z,17.52
2024-05-09T14:03:09.800Z,13.75
2024-05-09T14:05:36.783Z,13.48
2024-05-09T14:08:03.774Z,14.02
2024-05-09T14:10:31.958Z,13.32
2024-05-09T14:12:59.805Z,13.20
2024-05-09T14:15:26.689Z,15.15
2024-05-09T14:17:53.742Z,13.68
2024-05-09T14:20:30.020Z,13.18
2024-05-09T14:23:01.424Z,14.65
2024-05-09T14:27:57.113Z,14.32
2024-05-09T14:30:30.789Z,14.85
2024-05-09T14:33:03.456Z,14.52
2024-05-09T14:35:30.180Z,14.43
2024-05-09T14:37:56.881Z,14.10
2024-05-09T14:40:36.631Z,13.77
2024-05-09T14:43:08.308Z,13.20
2024-05-09T14:45:35.311Z,13.68
2024-05-09T14:48:02.792Z,12.77
2024-05-09T14:50:35.843Z,14.98
2024-05-09T14:53:06.399Z,12.48
2024-05-09T14:55:35.717Z,13.35
2024-05-09T14:58:03.234Z,12.63
2024-05-09T15:00:35.585Z,14.75
2024-05-09T15:03:03.810Z,15.75
2024-05-09T15:05:30.687Z,17.05
2024-05-09T15:07:58.139Z,15.63
2024-05-09T15:10:33.673Z,17.70
2024-05-09T15:13:02.806Z,16.52
2024-05-09T15:15:29.594Z,14.32
2024-05-09T15:17:56.656Z,15.93
2024-05-09T15:20:31.131Z,17.38
2024-05-09T15:23:02.076Z,14.82
2024-05-09T15:25:28.947Z,16.80
2024-05-09T15:27:55.816Z,15.70
2024-05-09T15:32:52.242Z,16.42
2024-05-09T15:35:18.998Z,15.55
2024-05-09T15:37:48.134Z,16.30
2024-05-09T15:40:18.910Z,14.77
2024-05-09T15:42:53.327Z,15.55
2024-05-09T15:45:19.977Z,17.13
2024-05-09T15:47:46.803Z,15.40
2024-05-09T15:50:20.435Z,16.23
2024-05-09T15:52:55.336Z,15.48
2024-05-09T15:55:21.930Z,17.88
2024-05-09T15:57:48.619Z,17.77
2024-05-09T16:00:24.373Z,18.33
2024-05-09T16:02:55.633Z,15.23
2024-05-09T16:05:22.668Z,16.45
2024-05-09T16:07:49.403Z,16.70
2024-05-09T16:10:22.736Z,16.45
2024-05-09T16:12:52.351Z,18.50
2024-05-09T16:15:18.956Z,16.52
2024-05-09T16:17:45.630Z,14.75
2024-05-09T16:20:18.101Z,15.73
2024-05-09T16:22:48.601Z,14.68
2024-05-09T16:25:15.233Z,17.60
2024-05-09T16:27:42.066Z,16.85
2024-05-09T16:30:12.062Z,16.35
2024-05-09T16:32:46.293Z,14.98
2024-05-09T16:35:13.774Z,16.45
2024-05-09T16:37:40.419Z,15.77
2024-05-09T16:40:15.244Z,14.48
2024-05-09T16:42:46.072Z,14.23
2024-05-09T16:45:13.153Z,15.27
2024-05-09T16:47:40.095Z,17.48
2024-05-09T16:50:08.568Z,17.63
2024-05-09T16:52:35.359Z,17.38
2024-05-09T16:55:02.035Z,17.20
2024-05-09T16:57:28.835Z,18.92
2024-05-09T16:59:55.400Z,20.33
2024-05-09T17:02:22.353Z,19.88
2024-05-09T17:04:48.995Z,17.90
2024-05-09T17:07:15.890Z,18.05
2024-05-09T17:09:42.589Z,19.98
2024-05-09T17:12:09.203Z,20.55
2024-05-09T17:14:35.760Z,20.08
2024-05-09T17:17:02.489Z,22.33
2024-05-09T17:19:29.381Z,19.30
2024-05-09T17:21:55.998Z,21.33
2024-05-09T17:24:22.635Z,19.45
2024-05-09T17:26:49.698Z,23.58
2024-05-09T17:29:18.601Z,23.55
2024-05-09T17:31:45.186Z,22.27
2024-05-09T17:34:11.930Z,23.27
2024-05-09T17:36:38.785Z,24.23
2024-05-09T17:39:05.643Z,24.88
2024-05-09T17:41:32.218Z,41.58
2024-05-09T17:43:58.765Z,27.73
2024-05-09T17:46:25.463Z,22.15
2024-05-09T17:48:52.228Z,27.70
2024-05-09T17:51:18.944Z,24.38
2024-05-09T17:53:47.758Z,24.70
2024-05-09T17:56:15.184Z,25.02
2024-05-09T17:58:41.782Z,25.13
2024-05-09T18:01:08.502Z,22.55
2024-05-09T18:03:35.251Z,24.85
2024-05-09T18:06:02.082Z,24.70
2024-05-09T18:08:28.684Z,24.60
2024-05-09T18:10:55.878Z,21.70
2024-05-09T18:13:22.827Z,26.55
2024-05-09T18:15:49.537Z,25.25
2024-05-09T18:18:16.359Z,24.38
2024-05-09T18:20:45.561Z,22.75
2024-05-09T18:23:15.605Z,25.20
2024-05-09T18:25:43.512Z,26.52
2024-05-09T18:28:10.194Z,23.77
2024-05-09T18:30:37.592Z,23.88
2024-05-09T18:33:06.643Z,29.70
2024-05-09T18:35:34.637Z,27.27
2024-05-09T18:38:01.308Z,26.92
2024-05-09T18:40:33.708Z,28.15
2024-05-09T18:43:04.169Z,27.75
2024-05-09T18:45:33.466Z,27.77
2024-05-09T18:48:00.299Z,28.52
2024-05-09T18:50:34.621Z,27.75
2024-05-09T18:53:08.572Z,28.42
2024-05-09T18:55:35.653Z,31.33
2024-05-09T18:58:03.365Z,28.83
2024-05-09T19:00:35.759Z,29.02
2024-05-09T19:03:09.573Z,29.85
2024-05-09T19:05:39.025Z,33.88
2024-05-09T19:08:07.322Z,32.30
2024-05-09T19:10:35.513Z,30.95
2024-05-09T19:13:07.156Z,31.85
2024-05-09T19:15:38.570Z,33.00
2024-05-09T19:18:06.101Z,30.52
2024-05-09T19:20:35.219Z,33.05
2024-05-09T19:23:03.456Z,33.83
2024-05-09T19:25:30.333Z,30.80
2024-05-09T19:27:56.978Z,30.73
2024-05-09T19:30:30.535Z,31.48
2024-05-09T19:33:05.978Z,31.65
2024-05-09T19:35:32.926Z,32.10
2024-05-09T19:37:59.635Z,28.83
2024-05-09T19:40:31.379Z,31.23
2024-05-09T19:43:00.675Z,30.95
2024-05-09T19:45:27.459Z,31.27
2024-05-09T19:47:54.272Z,31.35
2024-05-09T19:50:27.143Z,30.08
2024-05-09T19:53:03.029Z,33.95
2024-05-09T19:55:29.717Z,31.13
2024-05-09T19:57:56.319Z,31.83
2024-05-09T20:00:29.460Z,32.45
2024-05-09T20:03:02.202Z,34.45
2024-05-09T20:05:31.103Z,33.25
2024-05-09T20:07:58.022Z,32.08
2024-05-09T20:10:30.006Z,35.63
2024-05-09T20:12:59.465Z,33.90
2024-05-09T20:15:26.164Z,35.35
2024-05-09T20:17:53.327Z,35.85
2024-05-09T20:20:28.427Z,35.65
2024-05-09T20:23:02.988Z,35.05
2024-05-09T20:25:29.818Z,37.00
2024-05-09T20:27:56.467Z,34.15
2024-05-09T20:30:30.526Z,36.20
2024-05-09T20:32:59.831Z,35.17
2024-05-09T20:35:26.731Z,37.25
2024-05-09T20:37:53.423Z,37.47
2024-05-09T20:40:28.279Z,35.30
2024-05-09T20:42:58.847Z,36.03
2024-05-09T20:45:25.572Z,35.53
2024-05-09T20:47:52.302Z,32.95
2024-05-09T20:50:28.025Z,36.10
2024-05-09T20:53:02.597Z,34.08
2024-05-09T20:55:30.057Z,33.35
2024-05-09T20:57:57.051Z,34.67
2024-05-09T21:00:30.310Z,36.53
2024-05-09T21:03:05.791Z,34.88
2024-05-09T21:05:33.079Z,35.72
2024-05-09T21:07:59.892Z,34.15
2024-05-09T21:10:27.257Z,38.60
2024-05-09T21:15:22.997Z,36.10
2024-05-09T21:17:49.605Z,35.45
2024-05-09T21:20:20.498Z,36.20
2024-05-09T21:22:50.730Z,33.55
2024-05-09T21:25:17.346Z,34.65
2024-05-09T21:27:44.128Z,38.00
2024-05-09T21:30:18.410Z,36.38
2024-05-09T21:32:49.882Z,34.65
2024-05-09T21:35:17.677Z,33.35
2024-05-09T21:37:44.314Z,35.00
2024-05-09T21:40:13.936Z,36.47
2024-05-09T21:42:48.197Z,35.40
2024-05-09T21:45:14.837Z,36.88
2024-05-09T21:47:41.643Z,35.53
2024-05-09T21:50:12.463Z,35.88
2024-05-09T21:52:41.882Z,36.63
2024-05-09T21:55:08.700Z,37.10
2024-05-09T21:57:35.451Z,34.55
2024-05-09T22:00:02.294Z,37.25
2024-05-09T22:02:29.219Z,33.88
2024-05-09T22:04:56.004Z,36.13
2024-05-09T22:07:23.593Z,34.72
2024-05-09T22:09:50.273Z,35.47
2024-05-09T22:12:16.886Z,39.38
2024-05-09T22:14:43.446Z,38.47
2024-05-09T22:17:10.057Z,33.38
2024-05-09T22:19:36.771Z,39.80
2024-05-09T22:22:03.734Z,38.38
2024-05-09T22:24:30.399Z,37.70
2024-05-09T22:26:57.011Z,38.42
2024-05-09T22:29:23.627Z,36.38
2024-05-09T22:31:50.171Z,38.45
2024-05-09T22:34:16.877Z,37.85
2024-05-09T22:36:43.546Z,37.33
2024-05-09T22:39:10.138Z,36.75
2024-05-09T22:41:36.762Z,41.38
2024-05-09T22:44:03.613Z,38.75
2024-05-09T22:46:30.318Z,36.40
2024-05-09T22:48:57.002Z,38.90
2024-05-09T22:51:23.618Z,39.85
2024-05-09T22:53:50.247Z,37.63
2024-05-09T22:56:26.342Z,39.38
2024-05-09T22:58:52.894Z,37.47
2024-05-09T23:01:19.620Z,36.08
2024-05-09T23:03:47.154Z,37.60
2024-05-09T23:06:13.967Z,39.63
2024-05-09T23:08:40.543Z,36.17
2024-05-09T23:11:07.151Z,38.40
2024-05-09T23:13:34.536Z,36.25
2024-05-09T23:16:01.357Z,37.58
2024-05-09T23:18:28.090Z,38.05
2024-05-09T23:20:54.704Z,42.15
2024-05-09T23:23:21.310Z,40.17
2024-05-09T23:25:49.391Z,38.90
2024-05-09T23:28:16.142Z,38.33
2024-05-09T23:30:42.867Z,39.58
2024-05-09T23:33:11.675Z,38.40
2024-05-09T23:35:41.139Z,39.15
2024-05-09T23:38:07.733Z,38.00
2024-05-09T23:40:38.827Z,40.33
2024-05-09T23:43:11.261Z,39.30
2024-05-09T23:45:38.710Z,39.83
2024-05-09T23:48:06.125Z,41.08
2024-05-09T23:50:36.479Z,41.13
2024-05-09T23:53:05.974Z,40.78
2024-05-09T23:55:33.151Z,40.88
2024-05-09T23:57:59.938Z,40.08
